Time;durP1;ratioP1;P1;durP2;ratioP2;P2;SDS_P1;SDS_P2;PMS_P1;PMS_P2;Temp;Humidity;BMP_temperature;BMP_pressure;BME280_temperature;BME280_humidity;BME280_pressure;Samples;Min_cycle;Max_cycle;Signal;HPM_P1;HPM_P2
2023/12/11 00:00:50;;;;;;;15.98;4.53;;;8.50;99.90;;;;;;5021876;28;20575;-83
2023/12/11 00:03:16;;;;;;;9.45;2.42;;;8.50;99.90;;;;;;5024034;28;20523;-80
2023/12/11 00:05:41;;;;;;;20.98;3.85;;;8.50;99.90;;;;;;5021511;28;20155;-81
2023/12/11 00:08:07;;;;;;;11.27;3.65;;;8.50;99.90;;;;;;5017174;28;20416;-80
2023/12/11 00:10:33;;;;;;;21.70;4.22;;;8.50;99.90;;;;;;5003130;28;20107;-81
2023/12/11 00:12:59;;;;;;;12.80;3.97;;;8.50;99.90;;;;;;5006277;28;20056;-80
2023/12/11 00:15:24;;;;;;;12.15;2.20;;;8.50;99.90;;;;;;5022374;28;20041;-81
2023/12/11 00:17:50;;;;;;;12.98;3.97;;;8.50;99.90;;;;;;5023131;28;20099;-81
2023/12/11 00:20:15;;;;;;;14.75;3.97;;;8.50;99.90;;;;;;5023369;28;20111;-81
2023/12/11 00:22:41;;;;;;;12.45;3.97;;;8.50;99.90;;;;;;5022110;28;20405;-80
2023/12/11 00:25:07;;;;;;;15.27;3.53;;;8.50;99.90;;;;;;5021652;28;20118;-80
2023/12/11 00:27:33;;;;;;;15.68;3.45;;;8.50;99.90;;;;;;5019458;28;20389;-81
2023/12/11 00:29:59;;;;;;;13.75;4.03;;;8.50;99.90;;;;;;5017624;28;20128;-81
2023/12/11 00:32:25;;;;;;;12.45;3.60;;;8.50;99.90;;;;;;5022444;28;20446;-81
2023/12/11 00:34:50;;;;;;;11.40;4.82;;;8.50;99.90;;;;;;5022784;28;20120;-81
2023/12/11 00:37:17;;;;;;;13.40;3.03;;;8.50;99.90;;;;;;5022795;28;20523;-81
2023/12/11 00:39:42;;;;;;;10.15;2.60;;;8.50;99.90;;;;;;5023082;28;20045;-80
2023/12/11 00:42:08;;;;;;;13.68;3.08;;;8.50;99.90;;;;;;5021559;28;20053;-81
2023/12/11 00:44:37;;;;;;;15.43;4.00;;;8.50;99.90;;;;;;5021321;28;20041;-82
2023/12/11 00:47:04;;;;;;;22.67;3.80;;;8.50;99.90;;;;;;5023041;28;20034;-82
2023/12/11 00:49:30;;;;;;;20.38;3.67;;;8.50;99.90;;;;;;5021727;28;20049;-81
2023/12/11 00:51:55;;;;;;;21.38;2.90;;;8.50;99.90;;;;;;5021304;28;20072;-80
2023/12/11 00:54:21;;;;;;;22.27;4.15;;;8.50;99.90;;;;;;5022873;28;20045;-81
2023/12/11 00:56:47;;;;;;;15.63;3.92;;;8.50;99.90;;;;;;5022980;28;20091;-81
2023/12/11 00:59:12;;;;;;;9.23;3.03;;;8.60;99.90;;;;;;5021671;28;20596;-81
2023/12/11 01:01:38;;;;;;;13.77;2.72;;;8.60;99.90;;;;;;5022055;28;20052;-79
2023/12/11 01:04:04;;;;;;;8.27;2.53;;;8.50;99.90;;;;;;5022129;28;20694;-80
2023/12/11 01:06:29;;;;;;;14.73;3.33;;;8.50;99.90;;;;;;5020686;28;20056;-81
2023/12/11 01:08:55;;;;;;;10.63;2.83;;;8.50;99.90;;;;;;5010445;28;20112;-80
2023/12/11 01:11:21;;;;;;;17.08;3.92;;;8.50;99.90;;;;;;5003260;28;20450;-82
2023/12/11 01:13:46;;;;;;;15.90;2.88;;;8.50;99.90;;;;;;5003172;28;20038;-82
2023/12/11 01:16:12;;;;;;;13.82;3.15;;;8.50;99.90;;;;;;4995309;28;20061;-81
2023/12/11 01:18:37;;;;;;;10.98;2.78;;;8.50;99.90;;;;;;5020378;28;20037;-80
2023/12/11 01:21:03;;;;;;;8.75;2.05;;;8.50;99.90;;;;;;5021556;28;20125;-81
2023/12/11 01:23:29;;;;;;;10.32;2.38;;;8.50;99.90;;;;;;5020935;28;20053;-81
2023/12/11 01:25:55;;;;;;;6.72;3.40;;;8.50;99.90;;;;;;5021665;28;20526;-82
2023/12/11 01:28:20;;;;;;;12.00;3.85;;;8.50;99.90;;;;;;5021333;28;20073;-82
2023/12/11 01:30:46;;;;;;;6.72;2.60;;;8.50;99.90;;;;;;5022429;28;20111;-80
2023/12/11 01:33:12;;;;;;;7.88;3.35;;;8.50;99.90;;;;;;5022071;28;20053;-80
2023/12/11 01:35:37;;;;;;;10.90;3.33;;;8.40;99.90;;;;;;5019393;28;20107;-80
2023/12/11 01:38:03;;;;;;;11.75;2.40;;;8.50;99.90;;;;;;5021088;28;20399;-82
2023/12/11 01:40:29;;;;;;;11.13;2.42;;;8.50;99.90;;;;;;5020926;28;20124;-81
2023/12/11 01:42:55;;;;;;;10.15;3.55;;;8.50;99.90;;;;;;5021651;28;20494;-79
2023/12/11 01:45:20;;;;;;;10.38;4.45;;;8.50;99.90;;;;;;5022096;28;20045;-79
2023/12/11 01:47:46;;;;;;;8.25;2.42;;;8.50;99.90;;;;;;5022426;28;20431;-80
2023/12/11 01:50:12;;;;;;;5.82;3.13;;;8.50;99.90;;;;;;5020797;28;20404;-81
2023/12/11 01:52:38;;;;;;;16.08;3.88;;;8.50;99.90;;;;;;5020462;28;20377;-82
2023/12/11 01:55:05;;;;;;;16.88;4.63;;;8.50;99.90;;;;;;5021662;28;20056;-82
2023/12/11 01:57:31;;;;;;;8.02;2.53;;;8.50;99.90;;;;;;5021837;28;20145;-81
2023/12/11 01:59:57;;;;;;;7.63;3.80;;;8.50;99.90;;;;;;5019663;28;20041;-80
2023/12/11 02:02:23;;;;;;;24.25;3.97;;;8.50;99.90;;;;;;5020816;28;20033;-80
2023/12/11 02:04:50;;;;;;;7.32;3.38;;;8.50;99.90;;;;;;5020753;28;20407;-79
2023/12/11 02:07:16;;;;;;;10.82;2.80;;;8.50;99.90;;;;;;5021064;28;20049;-82
2023/12/11 02:09:42;;;;;;;8.38;3.38;;;8.50;99.90;;;;;;5003542;28;20125;-82
2023/12/11 02:12:08;;;;;;;17.77;3.22;;;8.50;99.90;;;;;;5019282;28;20165;-81
2023/12/11 02:14:34;;;;;;;16.42;4.95;;;8.50;99.90;;;;;;5003441;28;20032;-80
2023/12/11 02:17:00;;;;;;;13.23;4.03;;;8.50;99.90;;;;;;5020794;28;20045;-81
2023/12/11 02:19:25;;;;;;;6.47;3.30;;;8.60;99.90;;;;;;5020560;28;20041;-79
2023/12/11 02:21:52;;;;;;;11.75;4.70;;;8.60;99.90;;;;;;5020549;28;20042;-82
2023/12/11 02:24:23;;;;;;;19.40;3.75;;;8.50;99.90;;;;;;5021446;28;20087;-82
2023/12/11 02:26:49;;;;;;;15.38;4.13;;;8.60;99.90;;;;;;5003852;28;20041;-81
2023/12/11 02:29:14;;;;;;;12.60;4.65;;;8.60;99.90;;;;;;5020334;28;20056;-82
2023/12/11 02:31:40;;;;;;;12.48;3.85;;;8.50;99.90;;;;;;5020611;28;20034;-82
2023/12/11 02:34:08;;;;;;;10.95;1.98;;;8.60;99.90;;;;;;5019984;28;20045;-82
2023/12/11 02:36:33;;;;;;;17.08;4.22;;;8.60;99.90;;;;;;5018844;28;20054;-81
2023/12/11 02:38:59;;;;;;;16.60;3.63;;;8.60;99.90;;;;;;5003707;28;20416;-82
2023/12/11 02:41:25;;;;;;;7.00;2.83;;;8.60;99.90;;;;;;5003205;28;20471;-81
2023/12/11 02:43:51;;;;;;;16.73;3.60;;;8.60;99.90;;;;;;5003398;28;20128;-82
2023/12/11 02:46:16;;;;;;;13.25;3.80;;;8.60;99.90;;;;;;5021817;28;20045;-82
2023/12/11 02:48:42;;;;;;;16.20;4.32;;;8.60;99.90;;;;;;5021080;28;20094;-79
2023/12/11 02:51:08;;;;;;;14.57;4.78;;;8.60;99.90;;;;;;5002008;28;20172;-80
2023/12/11 02:53:33;;;;;;;10.23;3.47;;;8.60;99.90;;;;;;5019930;28;20617;-82
2023/12/11 02:55:59;;;;;;;10.82;4.28;;;8.60;99.90;;;;;;5021181;28;20041;-81
2023/12/11 02:58:25;;;;;;;11.90;4.32;;;8.60;99.90;;;;;;5003417;28;20045;-82
2023/12/11 03:00:50;;;;;;;13.65;3.45;;;8.60;99.90;;;;;;5021134;28;20049;-80
2023/12/11 03:03:16;;;;;;;24.80;3.88;;;8.60;99.90;;;;;;5021399;28;20558;-80
2023/12/11 03:05:41;;;;;;;10.05;2.50;;;8.60;99.90;;;;;;5018553;28;20053;-80
2023/12/11 03:08:07;;;;;;;14.52;3.90;;;8.60;99.90;;;;;;5014551;28;20068;-80
2023/12/11 03:10:33;;;;;;;11.23;4.60;;;8.60;99.90;;;;;;5000047;28;20049;-82
2023/12/11 03:12:59;;;;;;;19.02;6.03;;;8.60;99.90;;;;;;5001351;28;20046;-82
2023/12/11 03:15:24;;;;;;;9.82;3.85;;;8.60;99.90;;;;;;4985826;28;20073;-82
2023/12/11 03:17:50;;;;;;;16.02;4.38;;;8.60;99.90;;;;;;4982979;28;20057;-81
2023/12/11 03:20:16;;;;;;;12.38;3.65;;;8.60;99.90;;;;;;5023841;28;20127;-81
2023/12/11 03:22:42;;;;;;;16.42;4.38;;;8.60;99.90;;;;;;5023244;28;20140;-80
2023/12/11 03:25:07;;;;;;;14.15;3.78;;;8.60;99.90;;;;;;5022876;28;20403;-82
2023/12/11 03:27:33;;;;;;;26.42;4.72;;;8.60;99.90;;;;;;5007137;28;20045;-81
2023/12/11 03:29:59;;;;;;;12.23;3.67;;;8.60;99.90;;;;;;5024507;28;20046;-81
2023/12/11 03:32:24;;;;;;;11.00;3.75;;;8.70;99.90;;;;;;5024184;28;20046;-81
2023/12/11 03:34:50;;;;;;;10.18;3.53;;;8.60;99.90;;;;;;5022765;28;20048;-80
2023/12/11 03:37:16;;;;;;;14.38;3.22;;;8.70;99.90;;;;;;5023324;28;20041;-81
2023/12/11 03:39:42;;;;;;;29.20;3.67;;;8.60;99.90;;;;;;5024582;28;20042;-81
2023/12/11 03:42:08;;;;;;;7.72;2.80;;;8.70;99.90;;;;;;5006061;28;20064;-82
2023/12/11 03:44:33;;;;;;;11.95;3.95;;;8.70;99.90;;;;;;5024442;28;20674;-82
2023/12/11 03:46:59;;;;;;;6.68;3.50;;;8.60;99.90;;;;;;5023812;28;20084;-82
2023/12/11 03:49:27;;;;;;;10.23;3.85;;;8.70;99.90;;;;;;5023765;28;20146;-80
2023/12/11 03:51:52;;;;;;;11.10;3.30;;;8.70;99.90;;;;;;5022600;28;20072;-81
2023/12/11 03:54:18;;;;;;;13.75;3.85;;;8.70;99.90;;;;;;5023573;28;20033;-80
2023/12/11 03:56:44;;;;;;;22.58;4.25;;;8.70;99.90;;;;;;5024482;28;20055;-82
2023/12/11 03:59:11;;;;;;;21.45;4.22;;;8.70;99.90;;;;;;5023091;28;20045;-81
2023/12/11 04:01:37;;;;;;;24.48;5.15;;;8.70;99.90;;;;;;5022078;28;20052;-81
2023/12/11 04:04:03;;;;;;;8.95;3.65;;;8.70;99.90;;;;;;5017426;28;20400;-81
2023/12/11 04:06:28;;;;;;;16.67;4.25;;;8.70;99.90;;;;;;5019475;28;20484;-82
2023/12/11 04:08:54;;;;;;;24.67;3.60;;;8.70;99.90;;;;;;5018471;28;20048;-82
2023/12/11 04:11:20;;;;;;;14.95;4.80;;;8.70;99.90;;;;;;5023298;28;20156;-80
2023/12/11 04:13:45;;;;;;;18.30;4.40;;;8.70;99.90;;;;;;5023264;28;20098;-79
2023/12/11 04:16:12;;;;;;;20.42;4.05;;;8.70;99.90;;;;;;5021377;28;20076;-80
2023/12/11 04:18:38;;;;;;;15.30;2.88;;;8.70;99.90;;;;;;5005865;28;20037;-81
2023/12/11 04:21:04;;;;;;;8.38;2.92;;;8.70;99.90;;;;;;5021359;28;20042;-82
2023/12/11 04:23:30;;;;;;;8.52;2.78;;;8.70;99.90;;;;;;5022468;28;20121;-82
2023/12/11 04:25:59;;;;;;;13.02;3.58;;;8.80;99.90;;;;;;5020992;28;20140;-79
2023/12/11 04:28:28;;;;;;;16.40;4.40;;;8.80;99.90;;;;;;5018907;28;20050;-80
2023/12/11 04:30:54;;;;;;;8.88;4.05;;;8.70;99.90;;;;;;5008898;28;20044;-83
2023/12/11 04:33:20;;;;;;;19.35;5.00;;;8.70;99.90;;;;;;5022687;28;20506;-83
2023/12/11 04:35:46;;;;;;;15.07;3.03;;;8.80;99.90;;;;;;5021769;28;20099;-80
2023/12/11 04:38:12;;;;;;;12.52;3.53;;;8.70;99.90;;;;;;5022862;28;20064;-80
2023/12/11 04:40:38;;;;;;;15.80;3.08;;;8.70;99.90;;;;;;5005430;28;20495;-79
2023/12/11 04:43:04;;;;;;;7.82;2.83;;;8.70;99.90;;;;;;5021506;28;20103;-79
2023/12/11 04:45:29;;;;;;;12.45;3.67;;;8.70;99.90;;;;;;5021648;28;20103;-80
2023/12/11 04:47:55;;;;;;;11.40;3.45;;;8.70;99.90;;;;;;5023077;28;20045;-78
2023/12/11 04:50:21;;;;;;;17.35;4.72;;;8.70;99.90;;;;;;5020006;28;20056;-78
2023/12/11 04:52:47;;;;;;;10.98;2.67;;;8.70;99.90;;;;;;5022571;28;20048;-77
2023/12/11 04:55:12;;;;;;;11.43;3.75;;;8.70;99.90;;;;;;5021229;28;20132;-80
2023/12/11 04:57:38;;;;;;;7.65;3.08;;;8.70;99.90;;;;;;5023122;28;20407;-80
2023/12/11 05:00:04;;;;;;;6.70;2.85;;;8.70;99.90;;;;;;5015126;28;20044;-82
2023/12/11 05:02:30;;;;;;;11.27;5.32;;;8.70;99.90;;;;;;5004587;28;20045;-81
2023/12/11 05:04:56;;;;;;;11.90;4.97;;;8.70;99.90;;;;;;5021627;28;20586;-81
2023/12/11 05:07:22;;;;;;;9.23;3.75;;;8.80;99.90;;;;;;5020838;28;20045;-80
2023/12/11 05:09:48;;;;;;;14.75;3.38;;;8.80;99.90;;;;;;5003394;28;20125;-82
2023/12/11 05:12:14;;;;;;;8.88;2.53;;;8.80;99.90;;;;;;5002624;28;20042;-82
2023/12/11 05:14:39;;;;;;;5.97;3.17;;;8.80;99.90;;;;;;5002450;28;20057;-82
2023/12/11 05:17:05;;;;;;;7.63;2.28;;;8.80;99.90;;;;;;5020491;28;20692;-81
2023/12/11 05:19:30;;;;;;;10.60;3.83;;;8.80;99.90;;;;;;5020371;28;20048;-82
2023/12/11 05:21:58;;;;;;;9.10;3.05;;;8.80;99.90;;;;;;5021046;28;20037;-80
2023/12/11 05:24:24;;;;;;;12.88;5.35;;;8.80;99.90;;;;;;5022151;28;20172;-82
2023/12/11 05:26:50;;;;;;;10.40;2.22;;;8.80;99.90;;;;;;5022541;28;20041;-82
2023/12/11 05:29:16;;;;;;;14.30;3.28;;;8.90;99.90;;;;;;5022592;28;20051;-80
2023/12/11 05:31:42;;;;;;;8.40;2.35;;;8.80;99.90;;;;;;5022013;28;20709;-81
2023/12/11 05:34:08;;;;;;;12.50;2.50;;;8.90;99.90;;;;;;5021082;28;20049;-80
2023/12/11 05:36:33;;;;;;;12.90;4.35;;;8.80;99.90;;;;;;5021308;28;20057;-82
2023/12/11 05:38:59;;;;;;;6.75;3.55;;;8.80;99.90;;;;;;5020720;28;20049;-80
2023/12/11 05:41:25;;;;;;;6.57;3.10;;;8.80;99.90;;;;;;5020153;28;20086;-82
2023/12/11 05:43:51;;;;;;;4.55;2.15;;;8.80;99.90;;;;;;5011749;28;20711;-80
2023/12/11 05:46:17;;;;;;;7.15;2.35;;;8.80;99.90;;;;;;5011364;28;20042;-80
2023/12/11 05:48:43;;;;;;;5.07;1.65;;;8.80;99.90;;;;;;5006420;28;20054;-80
2023/12/11 05:51:08;;;;;;;5.43;1.90;;;8.80;99.90;;;;;;4999095;28;20046;-82
2023/12/11 05:53:34;;;;;;;10.00;3.45;;;8.90;99.90;;;;;;5002675;28;20129;-82
2023/12/11 05:56:00;;;;;;;6.38;3.05;;;8.80;99.90;;;;;;5003829;28;20037;-82
2023/12/11 05:58:25;;;;;;;4.47;2.00;;;8.80;99.90;;;;;;5015548;28;20046;-81
2023/12/11 06:00:51;;;;;;;10.75;3.47;;;8.80;99.90;;;;;;5010250;28;20439;-83
2023/12/11 06:03:16;;;;;;;6.50;2.10;;;8.80;99.90;;;;;;5021719;28;20255;-81
2023/12/11 06:05:42;;;;;;;11.85;2.03;;;8.80;99.90;;;;;;5019479;28;20057;-79
2023/12/11 06:08:08;;;;;;;6.40;2.38;;;8.80;99.90;;;;;;5016198;28;20585;-82
2023/12/11 06:10:34;;;;;;;16.48;2.75;;;8.70;99.90;;;;;;5009521;28;20030;-83
2023/12/11 06:12:59;;;;;;;6.28;2.47;;;8.80;99.90;;;;;;5017656;28;20056;-81
2023/12/11 06:15:25;;;;;;;7.68;2.90;;;8.70;99.90;;;;;;5002424;28;20092;-83
2023/12/11 06:17:51;;;;;;;8.27;2.10;;;8.70;99.90;;;;;;5013743;28;20099;-83
2023/12/11 06:20:17;;;;;;;7.68;1.92;;;8.70;99.90;;;;;;5019599;28;20128;-85
2023/12/11 06:22:42;;;;;;;8.88;1.95;;;8.70;99.90;;;;;;5002196;28;20137;-83
2023/12/11 06:25:08;;;;;;;6.15;1.23;;;8.70;99.90;;;;;;5001263;28;20121;-82
2023/12/11 06:27:34;;;;;;;9.27;2.50;;;8.70;99.90;;;;;;5005634;28;20041;-80
2023/12/11 06:29:59;;;;;;;4.72;1.77;;;8.70;99.90;;;;;;5001238;28;20476;-80
2023/12/11 06:32:25;;;;;;;9.20;2.65;;;8.70;99.90;;;;;;5019982;28;20041;-75
2023/12/11 06:34:50;;;;;;;2.28;1.90;;;8.70;99.90;;;;;;5016358;28;20428;-82
2023/12/11 06:37:16;;;;;;;4.78;2.97;;;8.70;99.90;;;;;;4987417;28;20598;-79
2023/12/11 06:39:42;;;;;;;6.00;2.30;;;8.70;99.90;;;;;;5003578;28;20628;-78
2023/12/11 06:42:08;;;;;;;9.98;2.70;;;8.70;99.90;;;;;;5019472;28;20046;-78
2023/12/11 06:44:35;;;;;;;4.70;2.25;;;8.70;99.90;;;;;;5018059;28;20566;-78
2023/12/11 06:47:01;;;;;;;14.57;3.92;;;8.70;99.90;;;;;;5020573;28;20080;-78
2023/12/11 06:49:26;;;;;;;4.18;1.92;;;8.60;99.90;;;;;;5021666;28;20503;-79
2023/12/11 06:51:52;;;;;;;8.02;2.17;;;8.60;99.90;;;;;;5024602;28;20041;-79
2023/12/11 06:54:18;;;;;;;7.22;1.67;;;8.60;99.90;;;;;;5018653;28;20226;-79
2023/12/11 06:56:44;;;;;;;16.10;1.95;;;8.70;99.90;;;;;;5022012;28;20052;-79
2023/12/11 06:59:09;;;;;;;9.75;1.80;;;8.60;99.90;;;;;;5012253;28;20049;-79
2023/12/11 07:01:35;;;;;;;8.20;1.88;;;8.70;99.90;;;;;;5004635;28;20488;-79
2023/12/11 07:04:01;;;;;;;6.10;2.25;;;8.60;99.90;;;;;;5018684;28;20089;-79
2023/12/11 07:06:27;;;;;;;9.05;2.33;;;8.60;99.90;;;;;;5023580;28;20049;-79
2023/12/11 07:08:53;;;;;;;11.93;2.80;;;8.60;99.90;;;;;;5011167;28;20539;-79
2023/12/11 07:11:19;;;;;;;11.05;2.50;;;8.60;99.90;;;;;;5023590;28;20136;-79
2023/12/11 07:13:45;;;;;;;5.55;2.83;;;8.60;99.90;;;;;;5013850;28;20081;-79
2023/12/11 07:16:12;;;;;;;6.82;2.10;;;8.60;99.90;;;;;;5004032;28;20432;-79
2023/12/11 07:18:41;;;;;;;3.25;1.20;;;8.60;99.90;;;;;;5006668;28;20100;-79
2023/12/11 07:21:11;;;;;;;15.52;2.50;;;8.60;99.90;;;;;;5015550;28;20045;-79
2023/12/11 07:23:37;;;;;;;9.98;1.77;;;8.60;99.90;;;;;;5003150;28;20086;-79
2023/12/11 07:26:10;;;;;;;12.85;2.78;;;8.60;99.90;;;;;;5023437;28;20084;-83
2023/12/11 07:28:36;;;;;;;;;;;8.60;99.90;;;;;;5010255;28;20038;-82
2023/12/11 07:31:03;;;;;;;7.00;2.03;;;8.60;99.90;;;;;;5021915;28;19921;-81
2023/12/11 07:33:29;;;;;;;5.70;2.88;;;8.60;99.90;;;;;;5024757;28;20033;-82
2023/12/11 07:35:54;;;;;;;4.00;1.58;;;8.60;99.90;;;;;;5022498;28;20167;-83
2023/12/11 07:38:20;;;;;;;4.82;1.05;;;8.60;99.90;;;;;;5024836;28;20068;-84
2023/12/11 07:40:46;;;;;;;3.33;1.55;;;8.60;99.90;;;;;;5025165;28;20697;-82
2023/12/11 07:43:12;;;;;;;9.43;2.75;;;8.60;99.90;;;;;;5009856;28;20033;-80
2023/12/11 07:45:37;;;;;;;4.70;1.48;;;8.60;99.90;;;;;;5019358;28;20160;-81
2023/12/11 07:48:03;;;;;;;12.90;2.42;;;8.60;99.90;;;;;;5021132;28;20064;-84
2023/12/11 07:50:29;;;;;;;6.43;2.13;;;8.60;99.90;;;;;;5023352;28;20041;-84
2023/12/11 07:52:55;;;;;;;6.28;1.55;;;8.60;99.90;;;;;;5024224;28;20049;-82
2023/12/11 07:55:21;;;;;;;7.18;2.20;;;8.60;99.90;;;;;;5021893;28;20032;-83
2023/12/11 07:57:47;;;;;;;6.75;1.50;;;8.60;99.90;;;;;;5025024;28;20041;-82
2023/12/11 08:00:13;;;;;;;6.20;1.13;;;8.60;99.90;;;;;;5022678;28;20033;-85
2023/12/11 08:02:39;;;;;;;12.00;1.75;;;8.60;99.90;;;;;;5022421;28;20132;-82
2023/12/11 08:05:05;;;;;;;19.88;1.92;;;8.60;99.90;;;;;;5022477;28;20172;-82
2023/12/11 08:07:30;;;;;;;7.63;1.83;;;8.60;99.90;;;;;;5017724;28;20045;-82
2023/12/11 08:09:56;;;;;;;7.07;1.65;;;8.60;99.90;;;;;;5022289;28;20034;-82
2023/12/11 08:12:22;;;;;;;6.75;1.40;;;8.60;99.90;;;;;;5023131;28;20095;-82
2023/12/11 08:14:47;;;;;;;5.40;1.88;;;8.60;99.90;;;;;;5013945;28;20043;-82
2023/12/11 08:17:13;;;;;;;7.32;1.92;;;8.60;99.90;;;;;;5021481;28;20104;-81
2023/12/11 08:19:38;;;;;;;5.70;2.10;;;8.60;99.90;;;;;;5020526;28;20053;-82
2023/12/11 08:22:04;;;;;;;7.95;1.77;;;8.60;99.90;;;;;;5020265;28;20049;-82
2023/12/11 08:24:30;;;;;;;4.05;1.90;;;8.60;99.90;;;;;;5018717;28;20044;-82
2023/12/11 08:26:56;;;;;;;3.90;1.58;;;8.60;99.90;;;;;;5020811;28;20038;-81
2023/12/11 08:29:22;;;;;;;2.72;1.10;;;8.60;99.90;;;;;;5005527;28;20044;-82
2023/12/11 08:31:48;;;;;;;4.88;1.45;;;8.60;99.90;;;;;;5018681;28;20042;-81
2023/12/11 08:34:13;;;;;;;4.32;2.47;;;8.60;99.90;;;;;;5012039;28;20048;-82
2023/12/11 08:36:39;;;;;;;9.75;2.17;;;8.60;99.90;;;;;;5020947;28;20045;-81
2023/12/11 08:39:05;;;;;;;4.90;1.60;;;8.60;99.90;;;;;;5021617;28;20061;-81
2023/12/11 08:41:30;;;;;;;8.07;2.63;;;8.70;99.90;;;;;;5014903;28;20500;-82
2023/12/11 08:43:56;;;;;;;9.27;1.70;;;8.70;99.90;;;;;;5012630;28;20049;-82
2023/12/11 08:46:22;;;;;;;11.50;2.20;;;8.70;99.90;;;;;;5013624;28;20042;-81
2023/12/11 08:48:48;;;;;;;4.68;1.15;;;8.70;99.90;;;;;;5002951;28;20401;-82
2023/12/11 08:51:17;;;;;;;5.63;2.83;;;8.70;99.90;;;;;;5016564;28;20047;-82
2023/12/11 08:53:43;;;;;;;7.38;2.08;;;8.70;99.90;;;;;;5018240;28;20053;-82
2023/12/11 08:56:09;;;;;;;3.83;1.67;;;8.80;99.90;;;;;;5020914;28;20199;-81
2023/12/11 08:58:36;;;;;;;3.40;1.25;;;8.80;99.90;;;;;;5020443;28;20045;-82
2023/12/11 09:01:03;;;;;;;5.53;1.73;;;8.80;99.90;;;;;;5021628;28;20042;-83
2023/12/11 09:03:29;;;;;;;9.45;1.83;;;8.80;99.90;;;;;;5009377;28;20096;-83
2023/12/11 09:05:55;;;;;;;5.40;1.05;;;8.80;99.90;;;;;;5022155;28;20547;-84
2023/12/11 09:08:25;;;;;;;8.63;0.95;;;8.80;99.90;;;;;;5019907;28;20096;-83
2023/12/11 09:10:51;;;;;;;4.22;1.52;;;8.80;99.90;;;;;;5021741;28;20056;-83
2023/12/11 09:13:16;;;;;;;4.55;1.23;;;8.80;99.90;;;;;;5023776;28;20427;-83
2023/12/11 09:15:42;;;;;;;3.13;0.70;;;8.90;99.90;;;;;;5023438;28;20053;-83
2023/12/11 09:18:08;;;;;;;4.18;1.05;;;8.80;99.90;;;;;;5022804;28;20053;-83
2023/12/11 09:20:34;;;;;;;5.97;1.58;;;8.90;99.90;;;;;;5013560;28;20034;-82
2023/12/11 09:22:59;;;;;;;2.40;1.23;;;8.80;99.90;;;;;;5013850;28;20463;-83
2023/12/11 09:25:25;;;;;;;6.78;1.75;;;8.90;99.90;;;;;;5021235;28;20158;-83
2023/12/11 09:27:51;;;;;;;6.18;1.42;;;8.90;99.90;;;;;;5021533;28;20377;-83
2023/12/11 09:30:16;;;;;;;7.72;1.73;;;8.90;99.90;;;;;;5024318;28;20049;-83
2023/12/11 09:32:42;;;;;;;4.97;1.42;;;8.90;99.90;;;;;;5022234;28;20041;-83
2023/12/11 09:35:08;;;;;;;1.45;0.82;;;8.90;99.90;;;;;;5021755;28;20045;-83
2023/12/11 09:37:34;;;;;;;4.40;1.35;;;8.90;99.90;;;;;;5023265;28;20389;-83
2023/12/11 09:39:59;;;;;;;9.05;1.67;;;8.90;99.90;;;;;;5021074;28;20155;-83
2023/12/11 09:42:27;;;;;;;10.43;1.63;;;8.90;99.90;;;;;;5021877;28;20075;-83
2023/12/11 09:44:53;;;;;;;3.30;0.98;;;8.90;99.90;;;;;;5020938;28;20488;-82
2023/12/11 09:47:39;;;;;;;6.43;1.88;;;9.00;99.90;;;;;;5015040;28;20056;-82
2023/12/11 09:50:06;;;;;;;3.33;2.22;;;9.00;99.90;;;;;;5017632;28;20117;-83
2023/12/11 09:52:32;;;;;;;7.03;2.67;;;9.00;99.90;;;;;;5010596;28;20037;-82
2023/12/11 09:54:57;;;;;;;3.53;1.88;;;9.00;99.90;;;;;;5021194;28;20041;-82
2023/12/11 09:57:24;;;;;;;3.90;1.58;;;9.00;99.90;;;;;;5021726;28;20056;-82
2023/12/11 09:59:51;;;;;;;26.20;1.58;;;9.10;99.90;;;;;;5021329;28;20048;-83
2023/12/11 10:02:17;;;;;;;4.70;2.22;;;9.10;99.90;;;;;;5021162;28;20041;-82
2023/12/11 10:05:03;;;;;;;7.25;3.40;;;9.10;99.90;;;;;;5019742;28;20057;-82
2023/12/11 10:07:29;;;;;;;4.93;2.53;;;9.10;99.90;;;;;;5022363;28;20068;-82
2023/12/11 10:09:55;;;;;;;6.50;2.17;;;9.10;99.90;;;;;;5011267;28;20087;-82
2023/12/11 10:12:21;;;;;;;6.07;1.40;;;9.10;99.90;;;;;;5022246;28;20037;-83
2023/12/11 10:15:03;;;;;;;3.50;1.30;;;9.10;99.90;;;;;;5021541;28;20120;-82
2023/12/11 10:17:29;;;;;;;3.80;1.40;;;9.10;99.90;;;;;;5004187;28;20077;-81
2023/12/11 10:19:55;;;;;;;4.30;1.10;;;9.20;99.90;;;;;;5018553;28;20041;-82
2023/12/11 10:22:31;;;;;;;3.03;1.13;;;9.20;99.90;;;;;;5020651;28;20540;-82
2023/12/11 10:24:58;;;;;;;3.30;1.83;;;9.20;99.90;;;;;;5020853;28;20046;-82
2023/12/11 10:27:27;;;;;;;13.38;2.53;;;9.20;99.90;;;;;;5020941;28;20056;-80
2023/12/11 10:30:12;;;;;;;5.30;2.15;;;9.20;99.90;;;;;;5002510;28;20049;-81
2023/12/11 10:32:41;;;;;;;9.90;2.35;;;9.20;99.90;;;;;;5020069;28;20076;-80
2023/12/11 10:35:08;;;;;;;7.78;3.33;;;9.20;99.90;;;;;;5018611;28;20428;-80
2023/12/11 10:37:36;;;;;;;5.20;1.70;;;9.20;99.90;;;;;;5018699;28;20140;-80
2023/12/11 10:40:03;;;;;;;9.88;2.28;;;9.20;99.90;;;;;;5018747;28;20088;-80
2023/12/11 10:42:29;;;;;;;2.55;0.85;;;9.20;99.90;;;;;;5020062;28;20136;-80
2023/12/11 10:44:55;;;;;;;19.35;1.55;;;9.20;99.90;;;;;;5020814;28;20120;-80
2023/12/11 10:47:22;;;;;;;3.63;1.23;;;9.20;99.90;;;;;;5021202;28;20042;-80
2023/12/11 10:49:48;;;;;;;1.05;0.60;;;9.10;99.90;;;;;;5019372;28;20053;-80
2023/12/11 10:52:14;;;;;;;4.30;0.73;;;9.10;99.90;;;;;;5003073;28;20124;-80
2023/12/11 10:54:42;;;;;;;6.93;1.52;;;9.10;99.90;;;;;;5002995;28;20160;-80
2023/12/11 10:57:13;;;;;;;23.23;1.85;;;9.10;99.90;;;;;;5020793;28;20068;-80
2023/12/11 10:59:39;;;;;;;4.13;1.08;;;9.10;99.90;;;;;;5020740;28;20041;-80
2023/12/11 11:02:07;;;;;;;1.15;1.15;;;9.10;99.90;;;;;;5020674;28;20043;-80
2023/12/11 11:04:36;;;;;;;5.72;1.30;;;9.10;99.90;;;;;;5019782;28;20077;-80
2023/12/11 11:07:28;;;;;;;5.05;1.30;;;9.10;99.90;;;;;;5002438;28;20081;-80
2023/12/11 11:10:10;;;;;;;5.03;1.73;;;9.10;99.90;;;;;;5001617;28;20057;-80
2023/12/11 11:12:43;;;;;;;4.10;1.98;;;9.10;99.90;;;;;;5016251;28;20042;-80
2023/12/11 11:15:10;;;;;;;4.15;1.70;;;9.10;99.90;;;;;;5019359;28;20049;-80
2023/12/11 11:18:00;;;;;;;9.00;2.67;;;9.10;99.90;;;;;;5020555;28;20068;-80
2023/12/11 11:20:31;;;;;;;1.67;1.58;;;9.10;99.90;;;;;;5018150;28;20103;-81
2023/12/11 11:23:15;;;;;;;4.15;1.40;;;9.10;99.90;;;;;;5004575;28;20173;-79
2023/12/11 11:25:54;;;;;;;10.15;2.63;;;9.10;99.90;;;;;;5016285;28;20107;-80
2023/12/11 11:28:40;;;;;;;6.15;1.98;;;9.10;99.90;;;;;;5014475;28;20045;-78
2023/12/11 11:31:06;;;;;;;13.00;2.78;;;9.00;99.90;;;;;;5004458;28;20136;-79
2023/12/11 11:33:49;;;;;;;9.93;2.63;;;9.00;99.90;;;;;;5017011;28;20047;-81
2023/12/11 11:36:16;;;;;;;;;;;8.90;99.90;;;;;;5022218;28;20551;-81
2023/12/11 11:38:52;;;;;;;4.88;2.10;;;8.90;99.90;;;;;;4986451;28;20016;-81
2023/12/11 11:41:22;;;;;;;3.72;1.17;;;8.90;99.90;;;;;;5013727;28;20061;-81
2023/12/11 11:44:05;;;;;;;3.47;1.25;;;8.90;99.90;;;;;;5024792;28;20029;-81
2023/12/11 11:46:54;;;;;;;3.42;1.27;;;8.90;99.90;;;;;;5002789;28;20108;-81
2023/12/11 11:49:24;;;;;;;5.22;0.70;;;8.80;99.90;;;;;;5025058;28;20041;-80
2023/12/11 11:51:50;;;;;;;2.55;0.40;;;8.80;99.90;;;;;;5020261;28;20084;-80
2023/12/11 11:54:16;;;;;;;1.90;0.80;;;8.80;99.90;;;;;;5003377;28;20105;-79
2023/12/11 11:56:45;;;;;;;5.50;1.70;;;8.80;99.90;;;;;;5021129;28;20046;-80
2023/12/11 11:59:11;;;;;;;5.68;1.17;;;8.80;99.90;;;;;;5019241;28;20045;-80
2023/12/11 12:01:48;;;;;;;3.83;0.63;;;8.80;99.90;;;;;;5019979;28;20048;-80
2023/12/11 12:04:25;;;;;;;4.13;0.95;;;8.80;99.90;;;;;;5019331;28;20046;-79
2023/12/11 12:06:51;;;;;;;2.22;1.35;;;8.80;99.90;;;;;;5021195;28;20056;-80
2023/12/11 12:09:18;;;;;;;3.85;1.45;;;8.80;99.90;;;;;;5022802;28;20047;-80
2023/12/11 12:11:43;;;;;;;5.68;1.45;;;8.90;99.90;;;;;;5020139;28;20053;-79
2023/12/11 12:14:13;;;;;;;5.03;0.75;;;8.80;99.90;;;;;;5021159;28;20504;-79
2023/12/11 12:16:38;;;;;;;2.38;1.27;;;8.90;99.90;;;;;;5011833;28;20054;-79
2023/12/11 12:19:05;;;;;;;0.73;0.35;;;8.80;99.90;;;;;;5002126;28;20067;-79
2023/12/11 12:21:32;;;;;;;0.93;0.90;;;8.80;99.90;;;;;;5015293;28;20103;-80
2023/12/11 12:24:03;;;;;;;2.85;0.85;;;8.80;99.90;;;;;;5020230;28;20050;-80
2023/12/11 12:26:33;;;;;;;3.67;0.90;;;8.70;99.90;;;;;;5005765;28;20604;-80
2023/12/11 12:29:00;;;;;;;1.98;1.45;;;8.70;99.90;;;;;;5004590;28;20064;-80
2023/12/11 12:31:26;;;;;;;2.35;1.42;;;8.70;99.90;;;;;;5021678;28;20080;-80
2023/12/11 12:33:52;;;;;;;3.15;0.95;;;8.60;99.90;;;;;;5019299;28;20045;-80
2023/12/11 12:36:18;;;;;;;2.42;1.02;;;8.60;99.90;;;;;;5003861;28;20099;-80
2023/12/11 12:38:44;;;;;;;1.10;0.45;;;8.60;99.90;;;;;;5004563;28;20252;-80
2023/12/11 12:41:13;;;;;;;7.13;1.60;;;8.60;99.90;;;;;;5020090;28;20041;-80
2023/12/11 12:43:39;;;;;;;3.47;0.88;;;8.50;99.90;;;;;;5016509;28;20049;-80
2023/12/11 12:46:04;;;;;;;2.28;1.27;;;8.50;99.90;;;;;;5019318;28;20538;-80
2023/12/11 12:48:30;;;;;;;2.40;0.95;;;8.50;99.90;;;;;;5002943;28;20049;-80
2023/12/11 12:51:09;;;;;;;1.13;0.93;;;8.50;99.90;;;;;;5020127;28;20484;-80